sensor_id;sensor_type;location;lat;lon;timestamp;temperature;humidity
74359;DHT22;62792;46.236;6.040;2023-02-11T00:01:18;24.30;28.90
74359;DHT22;62792;46.236;6.040;2023-02-11T00:06:23;24.20;29.00
74359;DHT22;62792;46.236;6.040;2023-02-11T00:11:29;24.20;28.80
74359;DHT22;62792;46.236;6.040;2023-02-11T00:16:33;24.30;29.10
74359;DHT22;62792;46.236;6.040;2023-02-11T00:21:36;24.20;28.90
74359;DHT22;62792;46.236;6.040;2023-02-11T00:26:39;24.30;28.80
74359;DHT22;62792;46.236;6.040;2023-02-11T00:31:43;24.20;29.00
74359;DHT22;62792;46.236;6.040;2023-02-11T00:36:46;24.30;28.90
74359;DHT22;62792;46.236;6.040;2023-02-11T00:41:50;24.20;28.90
74359;DHT22;62792;46.236;6.040;2023-02-11T00:46:54;24.30;28.80
74359;DHT22;62792;46.236;6.040;2023-02-11T00:51:57;24.20;28.90
74359;DHT22;62792;46.236;6.040;2023-02-11T00:57:00;24.20;28.80
74359;DHT22;62792;46.236;6.040;2023-02-11T01:02:04;24.30;28.70
74359;DHT22;62792;46.236;6.040;2023-02-11T01:07:07;24.20;28.70
74359;DHT22;62792;46.236;6.040;2023-02-11T01:12:10;24.30;28.60
74359;DHT22;62792;46.236;6.040;2023-02-11T01:17:14;24.20;28.60
74359;DHT22;62792;46.236;6.040;2023-02-11T01:22:17;24.20;28.70
74359;DHT22;62792;46.236;6.040;2023-02-11T01:27:19;24.20;28.50
74359;DHT22;62792;46.236;6.040;2023-02-11T01:32:24;24.20;28.60
74359;DHT22;62792;46.236;6.040;2023-02-11T01:37:27;24.20;28.70
74359;DHT22;62792;46.236;6.040;2023-02-11T01:42:30;24.10;28.60
74359;DHT22;62792;46.236;6.040;2023-02-11T01:47:34;24.20;28.50
74359;DHT22;62792;46.236;6.040;2023-02-11T01:52:37;24.20;28.60
74359;DHT22;62792;46.236;6.040;2023-02-11T01:57:42;24.20;28.60
74359;DHT22;62792;46.236;6.040;2023-02-11T02:02:49;24.30;28.50
74359;DHT22;62792;46.236;6.040;2023-02-11T02:07:58;24.20;28.40
74359;DHT22;62792;46.236;6.040;2023-02-11T02:13:04;24.20;28.40
74359;DHT22;62792;46.236;6.040;2023-02-11T02:18:12;24.10;28.70
74359;DHT22;62792;46.236;6.040;2023-02-11T02:23:23;24.20;28.20
74359;DHT22;62792;46.236;6.040;2023-02-11T02:28:35;24.20;28.40
74359;DHT22;62792;46.236;6.040;2023-02-11T02:33:57;24.10;28.30
74359;DHT22;62792;46.236;6.040;2023-02-11T02:39:03;24.10;28.30
74359;DHT22;62792;46.236;6.040;2023-02-11T02:44:08;24.10;28.40
74359;DHT22;62792;46.236;6.040;2023-02-11T02:49:12;24.10;28.40
74359;DHT22;62792;46.236;6.040;2023-02-11T02:59:43;24.20;28.40
74359;DHT22;62792;46.236;6.040;2023-02-11T03:04:55;24.10;28.20
74359;DHT22;62792;46.236;6.040;2023-02-11T03:10:01;24.10;28.20
74359;DHT22;62792;46.236;6.040;2023-02-11T03:15:07;24.10;28.30
74359;DHT22;62792;46.236;6.040;2023-02-11T03:20:12;24.10;28.20
74359;DHT22;62792;46.236;6.040;2023-02-11T03:25:16;24.20;28.20
74359;DHT22;62792;46.236;6.040;2023-02-11T03:30:21;24.00;28.20
74359;DHT22;62792;46.236;6.040;2023-02-11T03:35:31;24.20;28.10
74359;DHT22;62792;46.236;6.040;2023-02-11T03:40:35;24.10;28.10
74359;DHT22;62792;46.236;6.040;2023-02-11T03:45:40;24.10;28.10
74359;DHT22;62792;46.236;6.040;2023-02-11T03:50:44;24.10;28.20
74359;DHT22;62792;46.236;6.040;2023-02-11T03:55:48;24.10;28.20
74359;DHT22;62792;46.236;6.040;2023-02-11T04:00:53;24.00;28.10
74359;DHT22;62792;46.236;6.040;2023-02-11T04:05:58;24.20;28.10
74359;DHT22;62792;46.236;6.040;2023-02-11T04:11:02;24.10;28.10
74359;DHT22;62792;46.236;6.040;2023-02-11T04:16:05;24.10;27.90
74359;DHT22;62792;46.236;6.040;2023-02-11T04:21:10;24.00;27.90
74359;DHT22;62792;46.236;6.040;2023-02-11T04:26:13;24.10;27.90
74359;DHT22;62792;46.236;6.040;2023-02-11T04:31:15;24.10;28.10
74359;DHT22;62792;46.236;6.040;2023-02-11T04:36:20;24.00;28.00
74359;DHT22;62792;46.236;6.040;2023-02-11T04:41:23;24.00;27.90
74359;DHT22;62792;46.236;6.040;2023-02-11T04:46:25;24.00;27.90
74359;DHT22;62792;46.236;6.040;2023-02-11T04:51:30;24.10;27.90
74359;DHT22;62792;46.236;6.040;2023-02-11T04:56:33;24.10;27.90
74359;DHT22;62792;46.236;6.040;2023-02-11T05:01:36;24.00;27.80
74359;DHT22;62792;46.236;6.040;2023-02-11T05:06:40;24.00;27.80
74359;DHT22;62792;46.236;6.040;2023-02-11T05:11:43;24.00;27.90
74359;DHT22;62792;46.236;6.040;2023-02-11T05:16:46;24.00;27.70
74359;DHT22;62792;46.236;6.040;2023-02-11T05:21:50;24.00;27.90
74359;DHT22;62792;46.236;6.040;2023-02-11T05:27:03;24.00;27.80
74359;DHT22;62792;46.236;6.040;2023-02-11T05:32:06;23.90;27.70
74359;DHT22;62792;46.236;6.040;2023-02-11T05:37:10;23.90;27.60
74359;DHT22;62792;46.236;6.040;2023-02-11T05:42:13;23.90;27.70
74359;DHT22;62792;46.236;6.040;2023-02-11T05:47:16;24.00;27.60
74359;DHT22;62792;46.236;6.040;2023-02-11T05:52:21;24.00;27.60
74359;DHT22;62792;46.236;6.040;2023-02-11T05:57:24;23.90;27.60
74359;DHT22;62792;46.236;6.040;2023-02-11T06:02:27;23.90;27.60
74359;DHT22;62792;46.236;6.040;2023-02-11T06:07:31;24.00;27.50
74359;DHT22;62792;46.236;6.040;2023-02-11T06:12:34;23.90;27.70
74359;DHT22;62792;46.236;6.040;2023-02-11T06:17:37;24.00;27.70
74359;DHT22;62792;46.236;6.040;2023-02-11T06:22:42;23.90;27.50
74359;DHT22;62792;46.236;6.040;2023-02-11T06:27:45;24.00;27.70
74359;DHT22;62792;46.236;6.040;2023-02-11T06:32:47;23.90;27.60
74359;DHT22;62792;46.236;6.040;2023-02-11T06:37:52;23.90;27.60
74359;DHT22;62792;46.236;6.040;2023-02-11T06:42:56;23.90;27.50
74359;DHT22;62792;46.236;6.040;2023-02-11T06:47:59;23.90;27.40
74359;DHT22;62792;46.236;6.040;2023-02-11T06:53:04;23.90;27.50
74359;DHT22;62792;46.236;6.040;2023-02-11T06:58:07;24.00;27.50
74359;DHT22;62792;46.236;6.040;2023-02-11T07:03:09;24.00;27.30
74359;DHT22;62792;46.236;6.040;2023-02-11T07:08:14;24.00;27.50
74359;DHT22;62792;46.236;6.040;2023-02-11T07:13:17;24.00;27.50
74359;DHT22;62792;46.236;6.040;2023-02-11T07:18:20;24.10;27.40
74359;DHT22;62792;46.236;6.040;2023-02-11T07:23:24;24.10;27.40
74359;DHT22;62792;46.236;6.040;2023-02-11T07:28:27;24.10;27.40
74359;DHT22;62792;46.236;6.040;2023-02-11T07:33:30;24.10;27.50
74359;DHT22;62792;46.236;6.040;2023-02-11T07:38:34;24.10;27.30
74359;DHT22;62792;46.236;6.040;2023-02-11T07:43:38;24.10;27.20
74359;DHT22;62792;46.236;6.040;2023-02-11T07:48:41;24.10;27.40
74359;DHT22;62792;46.236;6.040;2023-02-11T07:53:45;24.20;27.30
74359;DHT22;62792;46.236;6.040;2023-02-11T07:58:48;24.20;27.30
74359;DHT22;62792;46.236;6.040;2023-02-11T08:03:52;24.20;27.40
74359;DHT22;62792;46.236;6.040;2023-02-11T08:08:56;24.20;27.40
74359;DHT22;62792;46.236;6.040;2023-02-11T08:13:59;24.30;27.30
74359;DHT22;62792;46.236;6.040;2023-02-11T08:19:05;24.20;27.40
74359;DHT22;62792;46.236;6.040;2023-02-11T08:24:10;24.20;27.30
74359;DHT22;62792;46.236;6.040;2023-02-11T08:29:14;24.20;27.50
74359;DHT22;62792;46.236;6.040;2023-02-11T08:34:18;24.20;27.50
74359;DHT22;62792;46.236;6.040;2023-02-11T08:39:22;24.20;27.50
74359;DHT22;62792;46.236;6.040;2023-02-11T08:44:25;24.10;27.70
74359;DHT22;62792;46.236;6.040;2023-02-11T08:49:27;24.10;27.50
74359;DHT22;62792;46.236;6.040;2023-02-11T08:54:34;24.20;27.50
74359;DHT22;62792;46.236;6.040;2023-02-11T08:59:36;24.20;27.50
74359;DHT22;62792;46.236;6.040;2023-02-11T09:04:40;24.20;27.50
74359;DHT22;62792;46.236;6.040;2023-02-11T09:09:44;24.30;27.50
74359;DHT22;62792;46.236;6.040;2023-02-11T09:14:47;24.30;27.60
74359;DHT22;62792;46.236;6.040;2023-02-11T09:19:50;24.30;27.60
74359;DHT22;62792;46.236;6.040;2023-02-11T09:24:54;24.40;27.60
74359;DHT22;62792;46.236;6.040;2023-02-11T09:29:57;24.40;27.60
74359;DHT22;62792;46.236;6.040;2023-02-11T09:35:00;24.40;27.60
74359;DHT22;62792;46.236;6.040;2023-02-11T09:40:05;24.30;27.60
74359;DHT22;62792;46.236;6.040;2023-02-11T09:45:10;24.40;27.70
74359;DHT22;62792;46.236;6.040;2023-02-11T09:50:17;24.40;27.90
74359;DHT22;62792;46.236;6.040;2023-02-11T09:55:24;24.50;27.70
74359;DHT22;62792;46.236;6.040;2023-02-11T10:00:30;24.40;27.80
74359;DHT22;62792;46.236;6.040;2023-02-11T10:05:42;24.40;27.80
74359;DHT22;62792;46.236;6.040;2023-02-11T10:10:52;24.40;27.80
74359;DHT22;62792;46.236;6.040;2023-02-11T10:16:03;24.40;27.90
74359;DHT22;62792;46.236;6.040;2023-02-11T10:21:13;24.40;27.80
74359;DHT22;62792;46.236;6.040;2023-02-11T10:26:22;24.50;27.90
74359;DHT22;62792;46.236;6.040;2023-02-11T10:31:26;24.50;27.90
74359;DHT22;62792;46.236;6.040;2023-02-11T10:36:32;24.50;27.80
74359;DHT22;62792;46.236;6.040;2023-02-11T10:41:38;24.50;27.90
74359;DHT22;62792;46.236;6.040;2023-02-11T10:46:44;24.50;28.10
74359;DHT22;62792;46.236;6.040;2023-02-11T10:51:47;24.50;27.90
74359;DHT22;62792;46.236;6.040;2023-02-11T10:56:57;24.50;28.10
74359;DHT22;62792;46.236;6.040;2023-02-11T11:02:01;24.50;28.20
74359;DHT22;62792;46.236;6.040;2023-02-11T11:07:15;24.50;28.10
74359;DHT22;62792;46.236;6.040;2023-02-11T11:12:25;24.50;28.10
74359;DHT22;62792;46.236;6.040;2023-02-11T11:17:33;24.50;28.10
74359;DHT22;62792;46.236;6.040;2023-02-11T11:22:36;24.50;28.20
74359;DHT22;62792;46.236;6.040;2023-02-11T11:27:41;24.60;27.90
74359;DHT22;62792;46.236;6.040;2023-02-11T11:32:43;24.50;28.20
74359;DHT22;62792;46.236;6.040;2023-02-11T11:37:50;24.60;28.20
74359;DHT22;62792;46.236;6.040;2023-02-11T11:43:03;24.60;28.20
74359;DHT22;62792;46.236;6.040;2023-02-11T11:48:10;24.60;28.30
74359;DHT22;62792;46.236;6.040;2023-02-11T11:53:15;24.50;28.20
74359;DHT22;62792;46.236;6.040;2023-02-11T11:58:24;24.50;28.20
74359;DHT22;62792;46.236;6.040;2023-02-11T12:03:34;24.50;28.10
74359;DHT22;62792;46.236;6.040;2023-02-11T12:08:52;24.60;28.20
74359;DHT22;62792;46.236;6.040;2023-02-11T12:14:05;24.60;28.20
74359;DHT22;62792;46.236;6.040;2023-02-11T12:19:27;24.60;28.30
74359;DHT22;62792;46.236;6.040;2023-02-11T12:24:41;24.60;28.30
74359;DHT22;62792;46.236;6.040;2023-02-11T12:30:01;24.60;28.30
74359;DHT22;62792;46.236;6.040;2023-02-11T12:40:41;24.70;28.20
74359;DHT22;62792;46.236;6.040;2023-02-11T12:45:59;24.60;28.30
74359;DHT22;62792;46.236;6.040;2023-02-11T12:51:11;24.60;28.10
74359;DHT22;62792;46.236;6.040;2023-02-11T12:56:21;24.70;28.00
74359;DHT22;62792;46.236;6.040;2023-02-11T13:01:28;24.60;28.30
74359;DHT22;62792;46.236;6.040;2023-02-11T13:06:36;24.70;28.20
74359;DHT22;62792;46.236;6.040;2023-02-11T13:11:42;24.60;28.30
74359;DHT22;62792;46.236;6.040;2023-02-11T13:16:53;24.80;28.20
74359;DHT22;62792;46.236;6.040;2023-02-11T13:22:02;24.70;28.20
74359;DHT22;62792;46.236;6.040;2023-02-11T13:27:09;24.60;28.40
74359;DHT22;62792;46.236;6.040;2023-02-11T13:32:21;24.70;28.20
74359;DHT22;62792;46.236;6.040;2023-02-11T13:37:24;24.80;28.20
74359;DHT22;62792;46.236;6.040;2023-02-11T13:42:29;24.80;28.20
74359;DHT22;62792;46.236;6.040;2023-02-11T13:47:55;24.80;28.30
74359;DHT22;62792;46.236;6.040;2023-02-11T13:52:59;24.80;28.30
74359;DHT22;62792;46.236;6.040;2023-02-11T13:58:14;24.80;28.30
74359;DHT22;62792;46.236;6.040;2023-02-11T14:03:27;24.80;28.40
74359;DHT22;62792;46.236;6.040;2023-02-11T14:08:57;24.80;28.40
74359;DHT22;62792;46.236;6.040;2023-02-11T14:19:31;24.80;28.20
74359;DHT22;62792;46.236;6.040;2023-02-11T14:30:08;24.90;28.30
74359;DHT22;62792;46.236;6.040;2023-02-11T14:35:19;24.90;28.20
74359;DHT22;62792;46.236;6.040;2023-02-11T14:40:26;24.90;28.20
74359;DHT22;62792;46.236;6.040;2023-02-11T14:45:33;24.90;28.40
74359;DHT22;62792;46.236;6.040;2023-02-11T14:50:39;24.90;28.30
74359;DHT22;62792;46.236;6.040;2023-02-11T14:55:46;24.90;28.30
74359;DHT22;62792;46.236;6.040;2023-02-11T15:00:51;24.90;28.30
74359;DHT22;62792;46.236;6.040;2023-02-11T15:05:58;24.90;28.30
74359;DHT22;62792;46.236;6.040;2023-02-11T15:11:02;24.90;28.40
74359;DHT22;62792;46.236;6.040;2023-02-11T15:16:09;24.80;28.20
74359;DHT22;62792;46.236;6.040;2023-02-11T15:21:20;24.80;28.50
74359;DHT22;62792;46.236;6.040;2023-02-11T15:26:24;24.70;28.20
74359;DHT22;62792;46.236;6.040;2023-02-11T15:31:27;24.80;28.20
74359;DHT22;62792;46.236;6.040;2023-02-11T15:36:35;24.80;28.30
74359;DHT22;62792;46.236;6.040;2023-02-11T15:41:39;24.80;28.30
74359;DHT22;62792;46.236;6.040;2023-02-11T15:46:42;24.90;28.30
74359;DHT22;62792;46.236;6.040;2023-02-11T15:51:49;25.10;28.10
74359;DHT22;62792;46.236;6.040;2023-02-11T15:56:53;25.30;28.30
74359;DHT22;62792;46.236;6.040;2023-02-11T16:02:04;25.30;28.20
74359;DHT22;62792;46.236;6.040;2023-02-11T16:07:34;25.20;28.10
74359;DHT22;62792;46.236;6.040;2023-02-11T16:12:48;25.10;28.20
74359;DHT22;62792;46.236;6.040;2023-02-11T16:17:52;25.10;28.30
74359;DHT22;62792;46.236;6.040;2023-02-11T16:22:56;25.00;28.40
74359;DHT22;62792;46.236;6.040;2023-02-11T16:27:59;25.00;28.50
74359;DHT22;62792;46.236;6.040;2023-02-11T16:33:03;24.90;28.50
74359;DHT22;62792;46.236;6.040;2023-02-11T16:38:07;24.90;28.50
74359;DHT22;62792;46.236;6.040;2023-02-11T16:43:10;24.90;28.50
74359;DHT22;62792;46.236;6.040;2023-02-11T16:48:15;24.80;28.60
74359;DHT22;62792;46.236;6.040;2023-02-11T16:53:21;24.80;28.60
74359;DHT22;62792;46.236;6.040;2023-02-11T16:58:25;24.80;28.60
74359;DHT22;62792;46.236;6.040;2023-02-11T17:03:28;24.70;28.70
74359;DHT22;62792;46.236;6.040;2023-02-11T17:08:37;24.70;28.80
74359;DHT22;62792;46.236;6.040;2023-02-11T17:13:40;24.80;28.60
74359;DHT22;62792;46.236;6.040;2023-02-11T17:18:43;24.70;28.80
74359;DHT22;62792;46.236;6.040;2023-02-11T17:23:47;24.60;28.80
74359;DHT22;62792;46.236;6.040;2023-02-11T17:28:50;24.80;28.70
74359;DHT22;62792;46.236;6.040;2023-02-11T17:33:53;24.70;28.70
74359;DHT22;62792;46.236;6.040;2023-02-11T17:38:57;24.70;28.90
74359;DHT22;62792;46.236;6.040;2023-02-11T17:44:00;24.70;28.70
74359;DHT22;62792;46.236;6.040;2023-02-11T17:49:03;24.60;28.90
74359;DHT22;62792;46.236;6.040;2023-02-11T17:54:11;24.60;28.80
74359;DHT22;62792;46.236;6.040;2023-02-11T17:59:15;24.60;28.90
74359;DHT22;62792;46.236;6.040;2023-02-11T18:04:18;24.50;29.00
74359;DHT22;62792;46.236;6.040;2023-02-11T18:09:22;24.50;29.10
74359;DHT22;62792;46.236;6.040;2023-02-11T18:14:26;24.50;28.90
74359;DHT22;62792;46.236;6.040;2023-02-11T18:19:28;24.50;29.10
74359;DHT22;62792;46.236;6.040;2023-02-11T18:24:34;24.60;29.10
74359;DHT22;62792;46.236;6.040;2023-02-11T18:29:37;24.50;29.00
74359;DHT22;62792;46.236;6.040;2023-02-11T18:34:41;24.50;29.10
74359;DHT22;62792;46.236;6.040;2023-02-11T18:39:45;24.40;28.90
74359;DHT22;62792;46.236;6.040;2023-02-11T18:44:48;24.50;28.80
74359;DHT22;62792;46.236;6.040;2023-02-11T18:49:51;24.50;28.90
74359;DHT22;62792;46.236;6.040;2023-02-11T18:54:55;24.40;29.10
74359;DHT22;62792;46.236;6.040;2023-02-11T18:59:58;24.40;28.90
74359;DHT22;62792;46.236;6.040;2023-02-11T19:05:01;24.40;29.00
74359;DHT22;62792;46.236;6.040;2023-02-11T19:10:07;24.50;28.90
74359;DHT22;62792;46.236;6.040;2023-02-11T19:15:11;24.50;29.10
74359;DHT22;62792;46.236;6.040;2023-02-11T19:20:14;24.50;29.10
74359;DHT22;62792;46.236;6.040;2023-02-11T19:25:19;24.40;28.90
74359;DHT22;62792;46.236;6.040;2023-02-11T19:30:22;24.40;29.00
74359;DHT22;62792;46.236;6.040;2023-02-11T19:35:25;24.40;29.10
74359;DHT22;62792;46.236;6.040;2023-02-11T19:40:29;24.40;29.00
74359;DHT22;62792;46.236;6.040;2023-02-11T19:45:32;24.40;29.00
74359;DHT22;62792;46.236;6.040;2023-02-11T19:50:34;24.40;29.10
74359;DHT22;62792;46.236;6.040;2023-02-11T19:55:39;24.30;29.10
74359;DHT22;62792;46.236;6.040;2023-02-11T20:00:41;24.50;28.90
74359;DHT22;62792;46.236;6.040;2023-02-11T20:05:44;24.40;29.10
74359;DHT22;62792;46.236;6.040;2023-02-11T20:10:49;24.40;28.80
74359;DHT22;62792;46.236;6.040;2023-02-11T20:15:52;24.30;28.90
74359;DHT22;62792;46.236;6.040;2023-02-11T20:20:55;24.30;29.10
74359;DHT22;62792;46.236;6.040;2023-02-11T20:26:05;24.30;29.10
74359;DHT22;62792;46.236;6.040;2023-02-11T20:31:08;24.40;29.00
74359;DHT22;62792;46.236;6.040;2023-02-11T20:36:13;24.40;28.90
74359;DHT22;62792;46.236;6.040;2023-02-11T20:41:20;24.40;29.00
74359;DHT22;62792;46.236;6.040;2023-02-11T20:46:25;24.40;29.10
74359;DHT22;62792;46.236;6.040;2023-02-11T20:51:30;24.40;29.00
74359;DHT22;62792;46.236;6.040;2023-02-11T20:56:36;24.40;29.00
74359;DHT22;62792;46.236;6.040;2023-02-11T21:01:40;24.30;28.90
74359;DHT22;62792;46.236;6.040;2023-02-11T21:06:45;24.30;29.00
74359;DHT22;62792;46.236;6.040;2023-02-11T21:11:52;24.40;29.00
74359;DHT22;62792;46.236;6.040;2023-02-11T21:16:55;24.40;28.80
74359;DHT22;62792;46.236;6.040;2023-02-11T21:21:58;24.40;28.90
74359;DHT22;62792;46.236;6.040;2023-02-11T21:27:03;24.40;29.00
74359;DHT22;62792;46.236;6.040;2023-02-11T21:32:06;24.40;28.90
74359;DHT22;62792;46.236;6.040;2023-02-11T21:37:09;24.30;29.10
74359;DHT22;62792;46.236;6.040;2023-02-11T21:42:13;24.30;28.80
74359;DHT22;62792;46.236;6.040;2023-02-11T21:47:16;24.40;28.90
74359;DHT22;62792;46.236;6.040;2023-02-11T21:52:19;24.30;29.00
74359;DHT22;62792;46.236;6.040;2023-02-11T21:57:23;24.40;28.80
74359;DHT22;62792;46.236;6.040;2023-02-11T22:02:26;24.40;28.90
74359;DHT22;62792;46.236;6.040;2023-02-11T22:07:29;24.30;28.60
74359;DHT22;62792;46.236;6.040;2023-02-11T22:12:33;24.40;28.60
74359;DHT22;62792;46.236;6.040;2023-02-11T22:17:36;24.30;28.70
74359;DHT22;62792;46.236;6.040;2023-02-11T22:22:39;24.30;28.80
74359;DHT22;62792;46.236;6.040;2023-02-11T22:27:43;24.40;28.80
74359;DHT22;62792;46.236;6.040;2023-02-11T22:32:46;24.30;28.80
74359;DHT22;62792;46.236;6.040;2023-02-11T22:37:49;24.30;28.80
74359;DHT22;62792;46.236;6.040;2023-02-11T22:42:56;24.30;28.70
74359;DHT22;62792;46.236;6.040;2023-02-11T22:47:59;24.30;28.90
74359;DHT22;62792;46.236;6.040;2023-02-11T22:53:01;24.30;28.70
74359;DHT22;62792;46.236;6.040;2023-02-11T22:58:06;24.30;28.70
74359;DHT22;62792;46.236;6.040;2023-02-11T23:03:09;24.40;28.70
74359;DHT22;62792;46.236;6.040;2023-02-11T23:08:12;24.40;28.60
74359;DHT22;62792;46.236;6.040;2023-02-11T23:13:16;24.30;28.70
74359;DHT22;62792;46.236;6.040;2023-02-11T23:18:19;24.30;28.40
74359;DHT22;62792;46.236;6.040;2023-02-11T23:23:22;24.30;28.50
74359;DHT22;62792;46.236;6.040;2023-02-11T23:28:27;24.30;28.50
74359;DHT22;62792;46.236;6.040;2023-02-11T23:33:30;24.20;28.60
74359;DHT22;62792;46.236;6.040;2023-02-11T23:38:33;24.30;28.80
74359;DHT22;62792;46.236;6.040;2023-02-11T23:43:37;24.30;28.80
74359;DHT22;62792;46.236;6.040;2023-02-11T23:48:40;24.30;28.50
74359;DHT22;62792;46.236;6.040;2023-02-11T23:53:43;24.30;28.50
74359;DHT22;62792;46.236;6.040;2023-02-11T23:58:48;24.30;28.60
